Time;durP1;ratioP1;P1;durP2;ratioP2;P2;SDS_P1;SDS_P2;PMS_P1;PMS_P2;Temp;Humidity;BMP_temperature;BMP_pressure;BME280_temperature;BME280_humidity;BME280_pressure;Samples;Min_cycle;Max_cycle;Signal;HPM_P1;HPM_P2
2022/05/19 00:03:38;;;;;;;2.90;2.70;;;;;;;22.83;49.67;101730.81;4984458;28;101373;-85
2022/05/19 00:06:05;;;;;;;2.50;2.40;;;;;;;22.80;49.73;101729.13;4995476;28;97231;-85
2022/05/19 00:08:31;;;;;;;3.27;2.80;;;;;;;22.79;49.68;101736.03;4998370;28;97022;-86
2022/05/19 00:11:00;;;;;;;3.23;2.70;;;;;;;22.75;49.79;101724.41;4994440;28;96993;-87
2022/05/19 00:13:27;;;;;;;4.30;3.00;;;;;;;22.75;50.01;101738.44;4980108;28;99629;-86
2022/05/19 00:15:53;;;;;;;3.00;2.80;;;;;;;22.70;49.94;101728.13;4984012;28;96908;-86
2022/05/19 00:18:18;;;;;;;3.43;2.67;;;;;;;22.68;49.86;101720.25;4999081;28;97200;-86
2022/05/19 00:20:44;;;;;;;4.27;2.83;;;;;;;22.66;50.00;101722.88;4986129;28;96721;-85
2022/05/19 00:23:09;;;;;;;2.97;2.77;;;;;;;22.62;49.99;101730.88;5000077;28;98545;-85
2022/05/19 00:25:35;;;;;;;3.33;3.03;;;;;;;22.59;50.13;101714.38;4978660;28;97236;-86
2022/05/19 00:28:00;;;;;;;3.53;3.23;;;;;;;22.54;50.28;101726.50;5003736;28;96915;-86
2022/05/19 00:30:26;;;;;;;3.33;2.90;;;;;;;22.52;50.24;101729.09;4985663;28;97193;-86
2022/05/19 00:32:51;;;;;;;3.20;3.00;;;;;;;22.49;50.26;101722.53;4984473;28;99580;-86
2022/05/19 00:35:17;;;;;;;3.43;3.20;;;;;;;22.47;50.42;101715.97;4986528;28;96753;-86
2022/05/19 00:37:43;;;;;;;3.20;3.00;;;;;;;22.44;50.37;101714.25;4996923;28;97409;-87
2022/05/19 00:40:10;;;;;;;2.70;2.60;;;;;;;22.42;50.70;101711.25;4982201;28;99553;-85
2022/05/19 00:42:44;;;;;;;3.03;2.53;;;;;;;22.38;50.67;101714.41;4983855;28;99765;-85
2022/05/19 00:45:28;;;;;;;4.63;3.33;;;;;;;22.34;50.56;101709.13;4991573;28;97282;-86
2022/05/19 00:47:59;;;;;;;3.10;2.83;;;;;;;22.30;50.68;101717.16;4994316;28;98039;-86
2022/05/19 00:50:43;;;;;;;2.80;2.60;;;;;;;22.29;51.12;101712.84;4991596;28;97283;-85
2022/05/19 00:53:18;;;;;;;5.50;2.87;;;;;;;22.26;50.75;101708.34;4992934;28;97238;-86
2022/05/19 00:55:47;;;;;;;4.57;2.83;;;;;;;22.21;50.90;101703.63;4994038;28;96996;-85
2022/05/19 00:58:34;;;;;;;3.97;3.20;;;;;;;22.20;51.67;101713.34;5004670;28;97632;-85
2022/05/19 01:01:00;;;;;;;3.70;2.40;;;;;;;22.18;50.83;101718.00;5001926;28;102048;-85
2022/05/19 01:03:29;;;;;;;4.13;3.00;;;;;;;22.17;51.11;101713.69;4993010;28;98378;-86
2022/05/19 01:06:02;;;;;;;6.90;3.07;;;;;;;22.15;51.17;101713.47;4998155;28;97240;-85
2022/05/19 01:08:47;;;;;;;2.93;2.73;;;;;;;22.10;51.68;101712.34;4992573;28;97030;-86
2022/05/19 01:11:14;;;;;;;2.87;2.60;;;;;;;22.06;50.98;101706.31;4987698;28;102382;-85
2022/05/19 01:13:39;;;;;;;2.57;2.47;;;;;;;22.04;51.30;101713.78;5000011;28;96778;-86
2022/05/19 01:16:07;;;;;;;3.27;2.97;;;;;;;21.99;51.12;101723.06;4980465;28;97227;-85
2022/05/19 01:18:34;;;;;;;2.20;2.10;;;;;;;21.96;51.18;101707.31;4978957;28;97535;-86
2022/05/19 01:21:00;;;;;;;2.53;2.43;;;;;;;21.89;51.22;101724.81;4996192;28;96982;-86
2022/05/19 01:24:12;;;;;;;6.20;2.90;;;;;;;21.82;52.08;101719.88;4986738;28;97009;-86
2022/05/19 01:26:41;;;;;;;3.13;2.93;;;;;;;21.75;51.47;101710.09;4940045;28;99412;-85
2022/05/19 01:29:08;;;;;;;3.30;3.10;;;;;;;21.71;51.58;101712.47;4979395;28;97032;-85
2022/05/19 01:31:44;;;;;;;2.83;2.70;;;;;;;21.67;52.02;101721.22;4984589;28;96859;-85
2022/05/19 01:34:10;;;;;;;3.30;3.10;;;;;;;21.64;51.76;101715.97;5002510;28;98179;-85
2022/05/19 01:36:36;;;;;;;3.67;3.00;;;;;;;21.60;51.86;101704.34;4981471;28;96824;-85
2022/05/19 01:39:08;;;;;;;2.97;2.80;;;;;;;21.58;52.25;101701.31;5003430;28;97194;-85
2022/05/19 01:41:55;;;;;;;3.53;3.30;;;;;;;21.56;52.28;101707.47;4980680;28;103355;-86
2022/05/19 01:44:54;;;;;;;3.70;3.40;;;;;;;21.52;52.57;101714.69;4997876;28;102484;-85
2022/05/19 01:47:31;;;;;;;6.83;3.37;;;;;;;21.45;52.72;101716.13;4976185;28;97612;-85
2022/05/19 01:50:25;;;;;;;3.60;3.30;;;;;;;21.41;52.65;101709.34;4988799;28;96818;-86
2022/05/19 01:53:13;;;;;;;2.93;2.77;;;;;;;21.37;52.54;101712.50;4980307;28;104228;-86
2022/05/19 01:55:57;;;;;;;3.60;3.40;;;;;;;21.34;52.83;101702.38;4996660;28;99670;-86
2022/05/19 01:58:48;;;;;;;4.20;3.30;;;;;;;21.29;53.09;101702.50;5001794;28;98777;-86
2022/05/19 02:01:17;;;;;;;3.93;3.30;;;;;;;21.28;52.23;101710.13;4998390;28;96883;-86
2022/05/19 02:03:50;;;;;;;3.33;2.90;;;;;;;21.25;52.56;101704.88;5002805;28;99015;-85
2022/05/19 02:06:37;;;;;;;3.63;3.30;;;;;;;21.17;53.36;101701.97;4992942;28;98961;-86
2022/05/19 02:09:07;;;;;;;3.30;3.00;;;;;;;21.16;52.64;101699.72;4979960;28;97845;-86
2022/05/19 02:11:42;;;;;;;3.37;3.17;;;;;;;21.17;52.81;101696.38;4986017;28;96960;-87
2022/05/19 02:14:14;;;;;;;3.60;3.37;;;;;;;21.16;52.90;101705.31;4978272;28;97597;-85
2022/05/19 02:16:42;;;;;;;3.50;3.17;;;;;;;21.13;52.52;101704.38;4985073;28;97747;-86
2022/05/19 02:19:10;;;;;;;3.90;3.50;;;;;;;21.12;52.54;101688.84;5001846;28;97012;-85
2022/05/19 02:21:36;;;;;;;2.90;2.70;;;;;;;21.11;52.60;101695.00;4984954;28;97516;-85
2022/05/19 02:24:03;;;;;;;3.33;3.00;;;;;;;21.09;52.84;101689.19;4996172;28;98187;-86
2022/05/19 02:26:33;;;;;;;3.83;3.53;;;;;;;21.05;53.11;101685.97;4983387;28;98110;-86
2022/05/19 02:29:05;;;;;;;3.17;2.97;;;;;;;21.05;53.08;101695.13;4983608;28;96912;-86
2022/05/19 02:31:30;;;;;;;3.30;3.10;;;;;;;21.01;53.09;101699.50;4989791;28;97040;-85
2022/05/19 02:33:55;;;;;;;3.40;3.07;;;;;;;20.96;52.97;101675.94;5002957;28;96909;-85
2022/05/19 02:36:21;;;;;;;4.07;3.10;;;;;;;20.99;53.19;101682.50;4991992;28;99180;-85
2022/05/19 02:38:46;;;;;;;3.77;3.47;;;;;;;21.00;53.05;101686.81;4986303;28;96851;-85
2022/05/19 02:41:12;;;;;;;3.80;3.50;;;;;;;20.99;53.19;101676.91;4992413;28;97209;-85
2022/05/19 02:43:37;;;;;;;3.13;2.93;;;;;;;20.98;53.27;101689.38;4987294;28;100109;-85
2022/05/19 02:46:02;;;;;;;3.10;2.90;;;;;;;20.96;53.25;101675.19;4987748;28;98063;-86
2022/05/19 02:48:29;;;;;;;3.57;3.23;;;;;;;20.96;53.43;101680.78;5004381;28;97183;-84
2022/05/19 02:50:55;;;;;;;3.83;3.50;;;;;;;20.95;53.51;101682.09;4988538;28;97039;-85
2022/05/19 02:53:20;;;;;;;3.23;3.03;;;;;;;20.92;53.36;101687.44;4987994;28;98526;-85
2022/05/19 02:55:46;;;;;;;3.63;3.33;;;;;;;20.93;53.30;101674.97;4998079;28;97602;-84
2022/05/19 02:58:14;;;;;;;3.37;3.17;;;;;;;20.92;53.66;101676.25;5004542;28;97427;-85
2022/05/19 03:00:42;;;;;;;3.90;3.60;;;;;;;20.92;53.47;101672.72;4982542;28;97325;-85
2022/05/19 03:03:07;;;;;;;4.00;3.70;;;;;;;20.90;53.70;101678.13;5002132;28;97976;-85
2022/05/19 03:05:34;;;;;;;8.57;4.10;;;;;;;20.87;53.62;101674.34;4984941;28;98222;-86
2022/05/19 03:07:59;;;;;;;3.93;3.63;;;;;;;20.84;53.63;101689.41;4988400;28;97102;-87
2022/05/19 03:10:25;;;;;;;3.60;3.33;;;;;;;20.84;53.65;101666.25;5003781;28;96955;-86
2022/05/19 03:12:51;;;;;;;3.73;3.50;;;;;;;20.83;53.70;101661.97;4981394;28;99864;-86
2022/05/19 03:15:16;;;;;;;3.90;3.60;;;;;;;20.81;53.83;101665.31;4987678;28;97540;-85
2022/05/19 03:17:43;;;;;;;3.87;3.27;;;;;;;20.81;53.97;101682.09;4983657;28;97149;-85
2022/05/19 03:20:10;;;;;;;3.63;3.33;;;;;;;20.82;53.93;101663.25;5001658;28;97031;-86
2022/05/19 03:22:35;;;;;;;3.50;3.30;;;;;;;20.82;53.92;101672.41;4971231;28;97009;-86
2022/05/19 03:25:00;;;;;;;4.07;3.67;;;;;;;20.79;53.91;101679.06;4976078;28;98319;-87
2022/05/19 03:27:26;;;;;;;4.97;3.30;;;;;;;20.80;53.95;101675.00;5001040;28;96979;-85
2022/05/19 03:29:52;;;;;;;4.63;3.30;;;;;;;20.77;53.89;101669.75;5006065;28;96931;-86
2022/05/19 03:32:18;;;;;;;3.87;3.60;;;;;;;20.75;53.96;101661.88;4983035;28;97319;-86
2022/05/19 03:34:43;;;;;;;3.80;3.60;;;;;;;20.72;53.91;101660.16;5000730;28;97249;-85
2022/05/19 03:37:09;;;;;;;3.63;3.40;;;;;;;20.71;54.10;101683.06;4985528;28;97113;-86
2022/05/19 03:39:36;;;;;;;4.00;3.70;;;;;;;20.73;54.00;101672.09;4985048;28;96873;-86
2022/05/19 03:42:06;;;;;;;3.97;3.67;;;;;;;20.71;54.16;101664.25;4985946;28;100625;-86
2022/05/19 03:44:32;;;;;;;4.00;3.60;;;;;;;20.69;54.31;101663.28;5001987;28;98050;-86
2022/05/19 03:46:58;;;;;;;3.67;3.47;;;;;;;20.69;54.22;101680.81;4985751;28;97559;-86
2022/05/19 03:49:23;;;;;;;3.73;3.53;;;;;;;20.67;54.32;101677.03;4981509;28;96858;-86
2022/05/19 03:51:48;;;;;;;3.30;3.07;;;;;;;20.66;54.19;101686.72;5002724;28;97957;-85
2022/05/19 03:54:14;;;;;;;3.50;3.30;;;;;;;20.64;54.28;101675.34;4998302;28;98478;-86
2022/05/19 03:56:40;;;;;;;4.20;3.90;;;;;;;20.65;54.27;101676.81;4983461;28;97702;-85
2022/05/19 03:59:05;;;;;;;4.03;3.50;;;;;;;20.67;54.44;101671.44;4982576;28;97015;-86
2022/05/19 04:01:31;;;;;;;3.90;3.70;;;;;;;20.68;54.29;101670.16;4986262;28;100830;-86
2022/05/19 04:03:57;;;;;;;3.83;3.53;;;;;;;20.66;54.46;101662.28;4981598;28;97074;-86
2022/05/19 04:06:23;;;;;;;3.80;3.50;;;;;;;20.75;54.49;101677.91;4996127;28;97174;-85
2022/05/19 04:08:48;;;;;;;4.10;3.70;;;;;;;20.78;54.35;101688.00;4999239;28;96633;-85
2022/05/19 04:11:14;;;;;;;7.47;3.87;;;;;;;20.78;54.38;101676.81;4996979;28;97632;-87
2022/05/19 04:13:40;;;;;;;3.60;3.40;;;;;;;20.82;54.33;101669.59;4993418;28;99858;-86
2022/05/19 04:16:09;;;;;;;4.77;3.57;;;;;;;20.84;54.50;101686.59;4991271;28;96929;-86
2022/05/19 04:18:35;;;;;;;3.97;3.63;;;;;;;20.86;54.29;101664.44;4983540;28;97146;-85
2022/05/19 04:21:00;;;;;;;6.23;3.60;;;;;;;20.85;54.25;101662.19;5002543;28;97624;-85
2022/05/19 04:23:27;;;;;;;3.60;3.40;;;;;;;20.87;54.32;101668.75;4981338;28;98165;-85
2022/05/19 04:25:55;;;;;;;4.77;4.37;;;;;;;20.92;54.47;101673.47;4998094;28;97463;-85
2022/05/19 04:28:21;;;;;;;4.07;3.77;;;;;;;20.89;54.40;101668.97;4987898;28;98114;-85
2022/05/19 04:30:46;;;;;;;3.33;3.13;;;;;;;20.93;54.49;101669.38;5013647;28;98688;-87
2022/05/19 04:33:12;;;;;;;4.10;3.70;;;;;;;20.97;54.31;101676.72;5022640;28;96743;-86
2022/05/19 04:35:39;;;;;;;4.80;3.57;;;;;;;21.02;54.35;101673.78;5009129;28;96579;-86
2022/05/19 04:38:11;;;;;;;3.97;3.67;;;;;;;21.06;54.70;101671.44;4986004;28;96965;-85
2022/05/19 04:40:39;;;;;;;3.83;3.60;;;;;;;21.09;54.45;101669.59;4992728;28;102949;-85
2022/05/19 04:43:06;;;;;;;3.70;3.50;;;;;;;21.12;54.36;101682.53;4998928;28;97300;-86
2022/05/19 04:45:32;;;;;;;3.53;3.33;;;;;;;21.12;54.59;101682.53;4987286;28;97030;-86
2022/05/19 04:47:58;;;;;;;3.70;3.30;;;;;;;21.19;54.50;101681.84;5006231;28;97579;-86
2022/05/19 04:50:24;;;;;;;3.90;3.67;;;;;;;21.21;54.25;101685.59;4999785;28;96738;-86
2022/05/19 04:52:49;;;;;;;4.07;3.77;;;;;;;21.27;54.35;101680.66;5004616;28;96836;-85
2022/05/19 04:55:14;;;;;;;3.37;3.07;;;;;;;21.32;54.21;101699.34;4983852;28;97455;-85
2022/05/19 04:57:43;;;;;;;3.40;3.20;;;;;;;21.35;54.45;101692.69;4996015;28;97110;-86
2022/05/19 05:00:11;;;;;;;4.40;3.57;;;;;;;21.38;54.10;101683.19;4996817;28;96995;-86
2022/05/19 05:02:36;;;;;;;7.13;3.00;;;;;;;21.40;54.24;101680.63;4987486;28;97208;-87
2022/05/19 05:05:02;;;;;;;3.63;3.43;;;;;;;21.41;54.24;101703.75;4981353;28;97029;-86
2022/05/19 05:07:27;;;;;;;3.33;3.13;;;;;;;21.43;54.28;101690.72;4978348;28;97250;-85
2022/05/19 05:09:52;;;;;;;4.30;3.57;;;;;;;21.49;54.35;101693.41;4984872;28;97719;-85
2022/05/19 05:12:18;;;;;;;3.80;3.50;;;;;;;21.44;54.41;101705.47;5003196;28;97356;-86
2022/05/19 05:14:43;;;;;;;4.17;3.87;;;;;;;21.51;54.38;101694.34;4984280;28;97005;-86
2022/05/19 05:17:08;;;;;;;4.57;3.80;;;;;;;21.56;54.45;101701.13;4975701;28;97021;-85
2022/05/19 05:19:34;;;;;;;3.53;3.23;;;;;;;21.61;54.50;101695.41;4978198;28;99604;-86
2022/05/19 05:22:00;;;;;;;4.37;3.30;;;;;;;21.66;54.46;101690.97;4985334;28;97318;-86
2022/05/19 05:24:26;;;;;;;4.00;3.60;;;;;;;21.72;54.47;101693.63;5000459;28;96867;-86
2022/05/19 05:26:51;;;;;;;3.90;3.03;;;;;;;21.79;54.56;101690.16;4986697;28;97226;-85
2022/05/19 05:29:17;;;;;;;3.20;3.00;;;;;;;21.86;54.59;101695.09;4985490;28;102627;-85
2022/05/19 05:31:43;;;;;;;3.80;3.43;;;;;;;21.94;54.56;101709.94;4984816;28;99112;-86
2022/05/19 05:34:08;;;;;;;3.60;3.30;;;;;;;22.03;54.55;101704.59;4995039;28;96846;-86
2022/05/19 05:36:34;;;;;;;3.70;3.40;;;;;;;22.12;54.22;101704.13;4996898;28;97143;-86
2022/05/19 05:38:59;;;;;;;4.30;3.13;;;;;;;22.25;54.19;101694.88;4996059;28;96896;-85
2022/05/19 05:41:25;;;;;;;2.80;2.70;;;;;;;22.33;54.06;101713.25;4984691;28;98072;-85
2022/05/19 05:43:51;;;;;;;3.20;3.00;;;;;;;22.43;53.88;101704.34;4966908;28;97056;-85
2022/05/19 05:46:17;;;;;;;3.23;2.70;;;;;;;22.56;53.59;101707.06;4997222;28;96794;-86
2022/05/19 05:48:45;;;;;;;5.40;3.20;;;;;;;22.63;53.72;101695.19;4975101;28;97110;-86
2022/05/19 05:51:12;;;;;;;3.57;2.93;;;;;;;22.77;53.60;101697.31;4982760;28;103785;-86
2022/05/19 05:53:39;;;;;;;2.63;2.43;;;;;;;22.87;53.68;101697.53;4982546;28;97380;-86
2022/05/19 05:56:07;;;;;;;2.93;2.73;;;;;;;22.94;53.36;101702.44;4972036;28;97268;-85
2022/05/19 05:58:33;;;;;;;4.13;2.60;;;;;;;23.03;53.29;101701.91;4993488;28;99411;-85
2022/05/19 06:00:58;;;;;;;3.70;2.83;;;;;;;23.10;53.09;101704.03;4990772;28;99798;-86
2022/05/19 06:03:24;;;;;;;3.20;2.90;;;;;;;23.21;52.85;101714.16;5003000;28;97095;-86
2022/05/19 06:05:50;;;;;;;3.43;3.13;;;;;;;23.27;52.65;101714.75;4973478;28;96793;-86
2022/05/19 06:08:16;;;;;;;5.10;2.43;;;;;;;23.36;52.36;101720.63;4983902;28;99536;-85
2022/05/19 06:10:42;;;;;;;6.17;2.80;;;;;;;23.43;52.26;101717.09;4985544;28;98688;-86
2022/05/19 06:13:08;;;;;;;3.30;3.03;;;;;;;23.50;52.42;101724.78;4984002;28;97161;-86
2022/05/19 06:15:34;;;;;;;3.00;2.57;;;;;;;23.58;52.23;101725.56;4999814;28;96881;-86
2022/05/19 06:17:59;;;;;;;2.83;2.47;;;;;;;23.68;52.01;101725.75;4997981;28;97850;-88
2022/05/19 06:20:26;;;;;;;2.73;2.53;;;;;;;23.77;52.24;101717.53;4985589;28;97328;-86
2022/05/19 06:22:52;;;;;;;3.27;2.80;;;;;;;23.90;51.83;101718.66;4996276;28;97565;-85
2022/05/19 06:25:21;;;;;;;2.80;2.60;;;;;;;24.03;51.48;101715.69;4984581;28;97356;-85
2022/05/19 06:27:50;;;;;;;2.40;2.30;;;;;;;24.16;51.22;101718.34;4986388;28;97707;-86
2022/05/19 06:30:17;;;;;;;2.60;2.20;;;;;;;24.27;50.92;101712.34;4995637;28;102620;-87
2022/05/19 06:32:44;;;;;;;2.23;2.03;;;;;;;24.39;50.65;101705.03;5002326;28;97138;-85
2022/05/19 06:35:12;;;;;;;3.60;2.40;;;;;;;24.49;50.43;101708.75;4988434;28;97220;-87
2022/05/19 06:37:37;;;;;;;2.50;2.10;;;;;;;24.59;50.11;101718.88;5004502;28;98326;-87
2022/05/19 06:40:03;;;;;;;2.63;2.33;;;;;;;24.69;49.83;101716.22;4990280;28;97338;-86
2022/05/19 06:42:29;;;;;;;2.70;2.07;;;;;;;24.82;49.47;101718.84;4976553;28;97519;-87
2022/05/19 06:44:56;;;;;;;2.10;2.00;;;;;;;24.96;49.35;101722.97;4986417;28;96918;-86
2022/05/19 06:47:22;;;;;;;2.20;2.10;;;;;;;25.09;49.34;101703.00;4982108;28;98908;-86
2022/05/19 06:49:51;;;;;;;2.30;2.10;;;;;;;25.21;48.88;101698.44;5002271;28;99739;-86
2022/05/19 06:52:20;;;;;;;1.90;1.80;;;;;;;25.36;48.35;101696.88;4985151;28;97206;-86
2022/05/19 06:54:51;;;;;;;3.23;2.17;;;;;;;25.50;47.51;101681.22;5003181;28;97462;-84
2022/05/19 06:57:19;;;;;;;2.10;1.90;;;;;;;25.61;47.71;101687.16;4988664;28;98980;-84
2022/05/19 06:59:45;;;;;;;3.10;1.80;;;;;;;25.77;47.34;101687.81;4996130;28;97272;-86
2022/05/19 07:02:11;;;;;;;1.97;1.70;;;;;;;25.88;46.81;101690.91;4984616;28;98697;-87
2022/05/19 07:04:38;;;;;;;1.80;1.70;;;;;;;25.99;46.57;101689.72;4987407;28;96622;-87
2022/05/19 07:07:04;;;;;;;2.17;2.03;;;;;;;26.09;46.27;101682.13;5002223;28;97935;-86
2022/05/19 07:09:31;;;;;;;1.80;1.70;;;;;;;26.18;45.92;101673.03;5001307;28;98769;-85
2022/05/19 07:11:57;;;;;;;3.73;1.57;;;;;;;26.26;45.51;101672.94;4986736;28;96651;-85
2022/05/19 07:14:23;;;;;;;2.10;1.57;;;;;;;26.30;45.52;101678.94;4988674;28;97435;-83
2022/05/19 07:16:49;;;;;;;2.00;1.90;;;;;;;26.31;45.33;101678.34;4977801;28;98467;-84
2022/05/19 07:22:04;;;;;;;1.80;1.70;;;;;;;26.45;44.80;101665.41;4990465;28;96765;-84
2022/05/19 07:24:31;;;;;;;2.50;1.50;;;;;;;26.54;44.87;101684.50;4983700;28;96787;-84
2022/05/19 07:26:57;;;;;;;1.30;1.20;;;;;;;26.64;44.71;101674.06;5001130;28;96763;-86
2022/05/19 07:29:25;;;;;;;1.73;1.63;;;;;;;26.73;44.40;101664.94;5006221;28;97582;-84
2022/05/19 07:31:51;;;;;;;2.20;1.50;;;;;;;26.81;44.02;101669.75;4987935;28;97310;-83
2022/05/19 07:34:21;;;;;;;1.70;1.60;;;;;;;26.87;43.38;101667.41;4989986;28;97123;-84
2022/05/19 07:36:47;;;;;;;2.10;1.90;;;;;;;26.93;43.63;101667.91;5001511;28;100811;-85
2022/05/19 07:39:13;;;;;;;1.80;1.70;;;;;;;27.01;43.33;101665.75;4980316;28;100545;-85
2022/05/19 07:41:39;;;;;;;1.93;1.60;;;;;;;27.05;43.26;101652.69;4987909;28;97085;-84
2022/05/19 07:44:06;;;;;;;1.73;1.37;;;;;;;27.08;42.77;101657.19;4977734;28;96909;-85
2022/05/19 07:46:32;;;;;;;1.77;1.47;;;;;;;27.11;42.67;101655.25;4996805;28;98598;-84
2022/05/19 07:48:58;;;;;;;2.77;2.10;;;;;;;27.13;42.90;101652.59;4983950;28;98127;-85
2022/05/19 07:51:27;;;;;;;2.50;1.57;;;;;;;27.19;42.55;101662.31;4987286;28;99128;-85
2022/05/19 07:53:54;;;;;;;1.60;1.50;;;;;;;27.22;42.45;101658.28;4995737;28;96906;-85
2022/05/19 07:56:21;;;;;;;1.50;1.40;;;;;;;27.27;42.71;101662.19;4994976;28;100004;-86
2022/05/19 07:58:46;;;;;;;3.13;1.80;;;;;;;27.33;42.70;101668.31;4998085;28;96925;-86
2022/05/19 08:01:13;;;;;;;3.77;1.90;;;;;;;27.38;42.21;101662.44;4971862;28;97307;-84
2022/05/19 08:03:39;;;;;;;1.50;1.40;;;;;;;27.44;42.24;101651.59;4977229;28;97436;-84
2022/05/19 08:06:07;;;;;;;1.63;1.53;;;;;;;27.45;42.08;101675.72;5002282;28;97038;-84
2022/05/19 08:08:37;;;;;;;2.40;1.53;;;;;;;27.55;41.85;101655.97;4987338;28;97227;-84
2022/05/19 08:11:02;;;;;;;1.70;1.60;;;;;;;27.61;41.64;101656.44;4986822;28;97098;-84
2022/05/19 08:16:12;;;;;;;1.50;1.40;;;;;;;27.62;41.11;101660.00;4997942;28;97073;-87
2022/05/19 08:18:37;;;;;;;1.57;1.47;;;;;;;27.61;40.75;101661.34;4984474;28;96968;-86
2022/05/19 08:21:06;;;;;;;6.40;1.50;;;;;;;27.70;40.44;101658.56;4993181;28;97245;-85
2022/05/19 08:23:37;;;;;;;1.67;1.40;;;;;;;27.81;39.99;101671.38;5003853;28;97058;-86
2022/05/19 08:26:04;;;;;;;1.40;1.30;;;;;;;27.96;40.41;101663.41;4982167;28;98402;-85
2022/05/19 08:28:31;;;;;;;1.47;1.37;;;;;;;28.07;40.13;101657.22;4995807;28;97209;-85
2022/05/19 08:31:01;;;;;;;3.33;1.30;;;;;;;28.14;40.00;101661.25;4990208;28;98243;-85
2022/05/19 08:33:27;;;;;;;3.00;1.60;;;;;;;28.16;39.75;101667.81;4976919;28;96880;-85
2022/05/19 08:35:53;;;;;;;1.60;1.50;;;;;;;28.20;39.53;101658.88;4982590;28;97923;-85
2022/05/19 08:38:20;;;;;;;4.17;1.90;;;;;;;28.36;39.36;101676.31;4996061;28;97489;-84
2022/05/19 08:40:53;;;;;;;7.30;1.67;;;;;;;28.47;38.82;101670.06;4970747;28;96915;-84
2022/05/19 08:43:23;;;;;;;2.33;1.70;;;;;;;28.63;38.47;101652.25;4986039;28;97560;-86
2022/05/19 08:45:53;;;;;;;1.43;1.33;;;;;;;28.77;38.66;101675.19;4990861;28;98773;-84
2022/05/19 08:48:26;;;;;;;1.93;1.60;;;;;;;28.96;37.99;101663.09;5004914;28;97720;-85
2022/05/19 08:51:01;;;;;;;2.40;1.47;;;;;;;29.12;37.66;101672.75;4996196;28;97080;-82
2022/05/19 08:53:29;;;;;;;2.13;1.73;;;;;;;29.30;37.97;101660.66;4973551;28;97098;-85
2022/05/19 08:56:00;;;;;;;1.43;1.33;;;;;;;29.40;37.52;101652.13;4983750;28;97080;-84
2022/05/19 08:58:46;;;;;;;2.70;1.80;;;;;;;29.42;36.74;101638.81;4983174;28;101632;-85
2022/05/19 09:01:57;;;;;;;1.77;1.50;;;;;;;29.51;36.53;101646.56;5000597;28;100393;-84
2022/05/19 09:04:35;;;;;;;1.30;1.20;;;;;;;29.59;36.22;101641.47;4984904;28;99208;-83
2022/05/19 09:10:21;;;;;;;1.70;1.60;;;;;;;29.68;36.86;101632.13;5003802;28;101683;-88
2022/05/19 09:12:49;;;;;;;3.27;1.40;;;;;;;29.75;36.78;101624.09;5002908;28;97543;-85
2022/05/19 09:15:14;;;;;;;1.83;1.37;;;;;;;29.88;36.97;101615.78;4997789;28;96827;-85
2022/05/19 09:17:43;;;;;;;1.63;1.40;;;;;;;30.07;36.52;101604.31;4985616;28;98734;-86
2022/05/19 09:20:16;;;;;;;1.50;1.40;;;;;;;30.22;35.72;101606.00;4982137;28;99618;-84
2022/05/19 09:22:41;;;;;;;1.30;1.20;;;;;;;30.31;36.14;101610.91;4982584;28;96903;-86
2022/05/19 09:25:13;;;;;;;2.63;1.53;;;;;;;30.44;35.61;101606.75;4990275;28;97624;-85
2022/05/19 09:27:41;;;;;;;1.40;1.30;;;;;;;30.63;35.49;101598.81;4995704;28;99006;-86
2022/05/19 09:30:14;;;;;;;1.80;1.60;;;;;;;30.78;34.75;101606.88;5001046;28;98390;-84
2022/05/19 09:32:51;;;;;;;1.57;1.47;;;;;;;30.91;34.09;101608.41;4990957;28;97075;-83
2022/05/19 09:35:24;;;;;;;1.47;1.37;;;;;;;30.91;34.46;101605.56;4976975;28;96891;-84
2022/05/19 09:38:05;;;;;;;2.23;1.13;;;;;;;30.91;33.80;101605.56;4990680;28;99919;-85
2022/05/19 09:40:37;;;;;;;1.47;1.37;;;;;;;30.95;34.02;101614.38;5001619;28;100835;-84
2022/05/19 09:43:20;;;;;;;1.47;1.20;;;;;;;31.04;33.14;101607.81;4994227;28;97060;-84
2022/05/19 09:45:48;;;;;;;1.33;1.20;;;;;;;31.12;34.10;101604.75;4994082;28;96804;-84
2022/05/19 09:48:14;;;;;;;1.20;1.10;;;;;;;31.13;33.97;101609.09;4989470;28;98866;-85
2022/05/19 09:50:48;;;;;;;4.93;1.00;;;;;;;31.12;33.20;101605.50;5000289;28;98251;-84
2022/05/19 09:53:24;;;;;;;1.73;1.40;;;;;;;31.14;33.88;101602.03;5001474;28;98510;-84
2022/05/19 09:55:57;;;;;;;1.60;1.50;;;;;;;31.18;33.00;101611.56;4997560;28;97538;-85
2022/05/19 09:58:27;;;;;;;0.93;0.93;;;;;;;31.25;33.50;101595.63;4983446;28;98903;-84
2022/05/19 10:00:58;;;;;;;1.77;1.13;;;;;;;31.33;32.81;101596.13;4991886;28;96999;-87
2022/05/19 10:03:41;;;;;;;2.93;1.33;;;;;;;31.48;32.94;101592.81;4987555;28;102963;-84
2022/05/19 10:06:14;;;;;;;4.23;1.10;;;;;;;31.67;33.55;101590.44;4987355;28;97111;-85
2022/05/19 10:08:42;;;;;;;2.43;1.70;;;;;;;31.72;33.14;101585.72;5001450;28;97889;-83
2022/05/19 10:11:14;;;;;;;1.50;1.23;;;;;;;31.76;32.47;101591.66;4985475;28;99943;-84
2022/05/19 10:14:03;;;;;;;1.50;1.40;;;;;;;31.83;32.48;101584.97;5004121;28;97209;-84
2022/05/19 10:16:47;;;;;;;1.57;1.27;;;;;;;31.83;31.93;101580.03;5000471;28;97264;-86
2022/05/19 10:19:47;;;;;;;1.70;1.60;;;;;;;31.78;32.14;101577.56;4984907;28;102857;-84
2022/05/19 10:22:18;;;;;;;1.20;1.10;;;;;;;31.92;31.82;101574.81;4985055;28;100621;-86
2022/05/19 10:25:13;;;;;;;3.83;1.40;;;;;;;31.92;31.12;101578.41;4994562;28;96828;-86
2022/05/19 10:31:18;;;;;;;1.50;1.40;;;;;;;32.12;31.65;101584.56;4998412;28;100482;-86
2022/05/19 10:33:53;;;;;;;2.90;1.20;;;;;;;32.17;32.49;101569.94;4996293;28;101618;-86
2022/05/19 10:36:47;;;;;;;1.83;1.60;;;;;;;32.19;30.79;101555.81;5000884;28;97127;-84
2022/05/19 10:39:42;;;;;;;1.53;1.00;;;;;;;32.24;31.50;101556.78;4998807;28;97344;-85
2022/05/19 10:42:38;;;;;;;4.13;1.57;;;;;;;32.34;31.51;101554.50;4993605;28;100918;-85
2022/05/19 10:45:03;;;;;;;1.43;1.20;;;;;;;32.46;32.13;101553.09;4997439;28;100613;-84
2022/05/19 10:47:35;;;;;;;1.23;1.10;;;;;;;32.48;31.65;101553.22;5006923;28;96937;-84
2022/05/19 10:50:22;;;;;;;1.50;1.40;;;;;;;32.51;30.47;101543.44;5005039;28;98892;-85
2022/05/19 10:52:58;;;;;;;1.33;1.23;;;;;;;32.59;30.23;101543.13;4998574;28;102415;-84
2022/05/19 10:55:37;;;;;;;1.40;1.30;;;;;;;32.61;30.07;101523.31;4987213;28;99576;-85
2022/05/19 10:58:14;;;;;;;1.03;0.93;;;;;;;32.56;30.67;101523.69;5001149;28;96878;-85
2022/05/19 11:00:58;;;;;;;1.83;1.30;;;;;;;32.58;30.24;101518.09;5005015;28;97087;-85
2022/05/19 11:03:42;;;;;;;1.10;1.07;;;;;;;32.70;29.80;101507.38;4990415;28;100951;-87
2022/05/19 11:06:10;;;;;;;1.20;1.10;;;;;;;32.73;30.27;101506.13;5008911;28;96559;-86
2022/05/19 11:08:43;;;;;;;2.00;1.20;;;;;;;32.73;29.81;101511.81;4998229;28;96837;-85
2022/05/19 11:12:06;;;;;;;4.40;1.20;;;;;;;32.66;30.00;101502.19;4989237;28;97313;-87
2022/05/19 11:15:14;;;;;;;1.27;1.17;;;;;;;32.62;29.89;101506.94;4908224;28;100796;-86
2022/05/19 11:17:49;;;;;;;1.13;1.00;;;;;;;32.75;30.13;101489.88;4909521;28;104284;-85
2022/05/19 11:20:20;;;;;;;1.30;1.20;;;;;;;32.86;29.89;101494.00;4995803;28;96786;-86
2022/05/19 11:22:51;;;;;;;1.03;0.97;;;;;;;32.87;29.84;101487.69;5004188;28;97270;-83
2022/05/19 11:28:29;;;;;;;2.17;1.20;;;;;;;32.95;29.23;101468.13;5006753;28;101351;-84
2022/05/19 11:31:00;;;;;;;1.30;1.20;;;;;;;33.17;29.95;101457.94;4983275;28;96282;-83
2022/05/19 11:33:33;;;;;;;1.73;1.27;;;;;;;33.33;29.51;101452.31;4980001;28;97226;-85
2022/05/19 11:36:07;;;;;;;1.13;1.03;;;;;;;33.42;29.94;101454.19;4999025;28;98293;-82
2022/05/19 11:39:10;;;;;;;1.50;1.30;;;;;;;33.56;29.22;101448.50;5002382;28;97321;-84
2022/05/19 11:41:37;;;;;;;1.70;1.17;;;;;;;33.63;29.16;101451.03;4983657;28;98330;-84
2022/05/19 11:44:20;;;;;;;1.60;1.47;;;;;;;33.68;27.84;101446.25;5001394;28;97671;-87
2022/05/19 11:47:06;;;;;;;1.40;1.10;;;;;;;33.80;28.24;101432.56;5005115;28;97357;-85
2022/05/19 11:55:42;;;;;;;2.80;1.30;;;;;;;34.28;28.02;101414.16;5002800;28;97466;-85
2022/05/19 11:58:22;;;;;;;3.80;1.10;;;;;;;34.36;28.18;101418.13;5001348;28;99303;-85
2022/05/19 12:00:52;;;;;;;3.47;1.30;;;;;;;34.53;28.13;101408.22;4977903;28;97806;-85
2022/05/19 12:03:45;;;;;;;3.23;1.20;;;;;;;34.61;27.38;101400.75;5003469;28;97011;-86